sensor_id;sensor_type;location;lat;lon;timestamp;P1;durP1;ratioP1;P2;durP2;ratioP2
54372;SDS011;69157;53.094;10.016;2023-07-31T00:00:59;5.88;;;1.27;;
54372;SDS011;69157;53.094;10.016;2023-07-31T00:03:25;1.40;;;1.10;;
54372;SDS011;69157;53.094;10.016;2023-07-31T00:05:51;3.17;;;1.20;;
54372;SDS011;69157;53.094;10.016;2023-07-31T00:08:17;4.03;;;1.27;;
54372;SDS011;69157;53.094;10.016;2023-07-31T00:10:43;4.00;;;1.38;;
54372;SDS011;69157;53.094;10.016;2023-07-31T00:13:09;1.58;;;1.20;;
54372;SDS011;69157;53.094;10.016;2023-07-31T00:15:35;1.73;;;1.08;;
54372;SDS011;69157;53.094;10.016;2023-07-31T00:18:01;2.08;;;1.40;;
54372;SDS011;69157;53.094;10.016;2023-07-31T00:20:27;0.98;;;0.90;;
54372;SDS011;69157;53.094;10.016;2023-07-31T00:22:53;1.63;;;1.00;;
54372;SDS011;69157;53.094;10.016;2023-07-31T00:25:19;1.20;;;1.10;;
54372;SDS011;69157;53.094;10.016;2023-07-31T00:27:45;3.67;;;1.20;;
54372;SDS011;69157;53.094;10.016;2023-07-31T00:30:11;1.73;;;1.20;;
54372;SDS011;69157;53.094;10.016;2023-07-31T00:32:37;3.17;;;0.80;;
54372;SDS011;69157;53.094;10.016;2023-07-31T00:35:03;3.28;;;1.20;;
54372;SDS011;69157;53.094;10.016;2023-07-31T00:37:29;2.78;;;1.10;;
54372;SDS011;69157;53.094;10.016;2023-07-31T00:39:55;1.38;;;0.98;;
54372;SDS011;69157;53.094;10.016;2023-07-31T00:42:21;1.63;;;1.38;;
54372;SDS011;69157;53.094;10.016;2023-07-31T00:44:47;1.52;;;1.02;;
54372;SDS011;69157;53.094;10.016;2023-07-31T00:47:13;3.35;;;1.50;;
54372;SDS011;69157;53.094;10.016;2023-07-31T00:49:39;2.22;;;1.15;;
54372;SDS011;69157;53.094;10.016;2023-07-31T00:52:06;4.22;;;1.27;;
54372;SDS011;69157;53.094;10.016;2023-07-31T00:54:32;4.13;;;1.50;;
54372;SDS011;69157;53.094;10.016;2023-07-31T00:56:58;1.75;;;1.20;;
54372;SDS011;69157;53.094;10.016;2023-07-31T00:59:25;3.10;;;1.25;;
54372;SDS011;69157;53.094;10.016;2023-07-31T01:01:51;3.15;;;1.48;;
54372;SDS011;69157;53.094;10.016;2023-07-31T01:04:17;2.25;;;1.23;;
54372;SDS011;69157;53.094;10.016;2023-07-31T01:06:48;2.42;;;1.20;;
54372;SDS011;69157;53.094;10.016;2023-07-31T01:09:36;2.90;;;1.30;;
54372;SDS011;69157;53.094;10.016;2023-07-31T01:12:03;4.95;;;1.65;;
54372;SDS011;69157;53.094;10.016;2023-07-31T01:14:30;5.78;;;1.50;;
54372;SDS011;69157;53.094;10.016;2023-07-31T01:16:56;2.20;;;1.40;;
54372;SDS011;69157;53.094;10.016;2023-07-31T01:19:22;4.35;;;1.40;;
54372;SDS011;69157;53.094;10.016;2023-07-31T01:24:55;4.38;;;1.10;;
54372;SDS011;69157;53.094;10.016;2023-07-31T01:27:21;5.90;;;1.50;;
54372;SDS011;69157;53.094;10.016;2023-07-31T01:29:50;2.90;;;1.20;;
54372;SDS011;69157;53.094;10.016;2023-07-31T01:32:18;2.45;;;1.50;;
54372;SDS011;69157;53.094;10.016;2023-07-31T01:34:45;1.45;;;1.10;;
54372;SDS011;69157;53.094;10.016;2023-07-31T01:37:11;3.03;;;1.30;;
54372;SDS011;69157;53.094;10.016;2023-07-31T01:39:37;5.05;;;1.67;;
54372;SDS011;69157;53.094;10.016;2023-07-31T01:42:03;3.70;;;1.55;;
54372;SDS011;69157;53.094;10.016;2023-07-31T01:44:29;5.10;;;1.60;;
54372;SDS011;69157;53.094;10.016;2023-07-31T01:46:55;2.40;;;1.50;;
54372;SDS011;69157;53.094;10.016;2023-07-31T01:49:21;4.32;;;1.40;;
54372;SDS011;69157;53.094;10.016;2023-07-31T01:51:47;1.67;;;1.50;;
54372;SDS011;69157;53.094;10.016;2023-07-31T01:54:13;2.85;;;1.80;;
54372;SDS011;69157;53.094;10.016;2023-07-31T01:56:39;2.78;;;1.63;;
54372;SDS011;69157;53.094;10.016;2023-07-31T01:59:05;3.88;;;1.98;;
54372;SDS011;69157;53.094;10.016;2023-07-31T02:01:31;2.58;;;1.63;;
54372;SDS011;69157;53.094;10.016;2023-07-31T02:03:57;3.13;;;1.75;;
54372;SDS011;69157;53.094;10.016;2023-07-31T02:06:23;2.83;;;1.83;;
54372;SDS011;69157;53.094;10.016;2023-07-31T02:08:49;4.15;;;2.08;;
54372;SDS011;69157;53.094;10.016;2023-07-31T02:11:16;3.20;;;2.00;;
54372;SDS011;69157;53.094;10.016;2023-07-31T02:13:42;4.60;;;1.88;;
54372;SDS011;69157;53.094;10.016;2023-07-31T02:16:08;5.00;;;2.20;;
54372;SDS011;69157;53.094;10.016;2023-07-31T02:18:34;4.43;;;2.05;;
54372;SDS011;69157;53.094;10.016;2023-07-31T02:21:00;3.97;;;2.45;;
54372;SDS011;69157;53.094;10.016;2023-07-31T02:23:26;5.28;;;2.13;;
54372;SDS011;69157;53.094;10.016;2023-07-31T02:25:52;5.35;;;2.40;;
54372;SDS011;69157;53.094;10.016;2023-07-31T02:28:18;4.13;;;2.22;;
54372;SDS011;69157;53.094;10.016;2023-07-31T02:30:44;6.07;;;2.47;;
54372;SDS011;69157;53.094;10.016;2023-07-31T02:33:11;3.47;;;2.60;;
54372;SDS011;69157;53.094;10.016;2023-07-31T02:35:37;4.03;;;2.47;;
54372;SDS011;69157;53.094;10.016;2023-07-31T02:38:03;4.75;;;2.47;;
54372;SDS011;69157;53.094;10.016;2023-07-31T02:40:29;4.55;;;2.63;;
54372;SDS011;69157;53.094;10.016;2023-07-31T02:42:55;4.93;;;3.20;;
54372;SDS011;69157;53.094;10.016;2023-07-31T02:45:21;6.28;;;2.95;;
54372;SDS011;69157;53.094;10.016;2023-07-31T02:47:47;4.28;;;2.65;;
54372;SDS011;69157;53.094;10.016;2023-07-31T02:50:13;3.60;;;2.40;;
54372;SDS011;69157;53.094;10.016;2023-07-31T02:52:39;5.50;;;2.72;;
54372;SDS011;69157;53.094;10.016;2023-07-31T02:55:05;3.50;;;2.33;;
54372;SDS011;69157;53.094;10.016;2023-07-31T02:57:31;4.57;;;2.53;;
54372;SDS011;69157;53.094;10.016;2023-07-31T02:59:57;4.85;;;2.47;;
54372;SDS011;69157;53.094;10.016;2023-07-31T03:02:23;3.83;;;2.40;;
54372;SDS011;69157;53.094;10.016;2023-07-31T03:04:49;4.55;;;2.55;;
54372;SDS011;69157;53.094;10.016;2023-07-31T03:07:15;4.70;;;2.55;;
54372;SDS011;69157;53.094;10.016;2023-07-31T03:09:41;4.30;;;2.78;;
54372;SDS011;69157;53.094;10.016;2023-07-31T03:12:08;3.78;;;2.28;;
54372;SDS011;69157;53.094;10.016;2023-07-31T03:14:34;6.85;;;2.85;;
54372;SDS011;69157;53.094;10.016;2023-07-31T03:17:00;4.50;;;2.85;;
54372;SDS011;69157;53.094;10.016;2023-07-31T03:19:26;5.90;;;2.75;;
54372;SDS011;69157;53.094;10.016;2023-07-31T03:21:52;4.80;;;2.90;;
54372;SDS011;69157;53.094;10.016;2023-07-31T03:24:18;4.55;;;2.60;;
54372;SDS011;69157;53.094;10.016;2023-07-31T03:26:44;5.25;;;2.67;;
54372;SDS011;69157;53.094;10.016;2023-07-31T03:29:10;5.97;;;2.58;;
54372;SDS011;69157;53.094;10.016;2023-07-31T03:31:36;6.88;;;3.03;;
54372;SDS011;69157;53.094;10.016;2023-07-31T03:34:02;3.17;;;2.38;;
54372;SDS011;69157;53.094;10.016;2023-07-31T03:36:28;4.35;;;2.92;;
54372;SDS011;69157;53.094;10.016;2023-07-31T03:38:54;5.75;;;2.90;;
54372;SDS011;69157;53.094;10.016;2023-07-31T03:41:20;7.00;;;2.58;;
54372;SDS011;69157;53.094;10.016;2023-07-31T03:43:49;4.03;;;2.53;;
54372;SDS011;69157;53.094;10.016;2023-07-31T03:46:17;4.05;;;2.58;;
54372;SDS011;69157;53.094;10.016;2023-07-31T03:48:43;3.38;;;2.53;;
54372;SDS011;69157;53.094;10.016;2023-07-31T03:51:09;5.00;;;2.72;;
54372;SDS011;69157;53.094;10.016;2023-07-31T03:53:35;4.85;;;2.65;;
54372;SDS011;69157;53.094;10.016;2023-07-31T03:56:01;5.80;;;2.83;;
54372;SDS011;69157;53.094;10.016;2023-07-31T03:58:27;4.43;;;2.15;;
54372;SDS011;69157;53.094;10.016;2023-07-31T04:00:53;4.10;;;2.50;;
54372;SDS011;69157;53.094;10.016;2023-07-31T04:03:19;5.85;;;2.80;;
54372;SDS011;69157;53.094;10.016;2023-07-31T04:05:45;5.57;;;2.35;;
54372;SDS011;69157;53.094;10.016;2023-07-31T04:08:11;3.90;;;2.47;;
54372;SDS011;69157;53.094;10.016;2023-07-31T04:10:37;4.32;;;2.45;;
54372;SDS011;69157;53.094;10.016;2023-07-31T04:13:03;4.45;;;2.80;;
54372;SDS011;69157;53.094;10.016;2023-07-31T04:15:29;6.50;;;2.95;;
54372;SDS011;69157;53.094;10.016;2023-07-31T04:17:55;4.78;;;2.83;;
54372;SDS011;69157;53.094;10.016;2023-07-31T04:20:21;3.67;;;2.38;;
54372;SDS011;69157;53.094;10.016;2023-07-31T04:22:48;3.70;;;2.22;;
54372;SDS011;69157;53.094;10.016;2023-07-31T04:25:14;3.78;;;2.60;;
54372;SDS011;69157;53.094;10.016;2023-07-31T04:27:40;4.82;;;2.78;;
54372;SDS011;69157;53.094;10.016;2023-07-31T04:30:06;3.70;;;2.55;;
54372;SDS011;69157;53.094;10.016;2023-07-31T04:32:32;3.08;;;2.10;;
54372;SDS011;69157;53.094;10.016;2023-07-31T04:35:00;3.22;;;2.05;;
54372;SDS011;69157;53.094;10.016;2023-07-31T04:37:26;3.33;;;2.38;;
54372;SDS011;69157;53.094;10.016;2023-07-31T04:39:52;5.00;;;2.10;;
54372;SDS011;69157;53.094;10.016;2023-07-31T04:42:18;4.13;;;2.55;;
54372;SDS011;69157;53.094;10.016;2023-07-31T04:44:44;5.10;;;2.28;;
54372;SDS011;69157;53.094;10.016;2023-07-31T04:47:10;3.85;;;2.45;;
54372;SDS011;69157;53.094;10.016;2023-07-31T04:49:36;4.10;;;2.00;;
54372;SDS011;69157;53.094;10.016;2023-07-31T04:52:02;3.88;;;2.40;;
54372;SDS011;69157;53.094;10.016;2023-07-31T04:54:28;8.85;;;2.63;;
54372;SDS011;69157;53.094;10.016;2023-07-31T04:56:54;4.43;;;2.30;;
54372;SDS011;69157;53.094;10.016;2023-07-31T04:59:20;3.38;;;2.25;;
54372;SDS011;69157;53.094;10.016;2023-07-31T05:01:46;3.35;;;2.28;;
54372;SDS011;69157;53.094;10.016;2023-07-31T05:04:13;4.25;;;2.28;;
54372;SDS011;69157;53.094;10.016;2023-07-31T05:06:39;4.63;;;2.28;;
54372;SDS011;69157;53.094;10.016;2023-07-31T05:09:05;2.60;;;1.80;;
54372;SDS011;69157;53.094;10.016;2023-07-31T05:11:31;3.58;;;2.05;;
54372;SDS011;69157;53.094;10.016;2023-07-31T05:13:57;3.22;;;1.90;;
54372;SDS011;69157;53.094;10.016;2023-07-31T05:16:23;2.78;;;1.98;;
54372;SDS011;69157;53.094;10.016;2023-07-31T05:18:49;2.60;;;1.92;;
54372;SDS011;69157;53.094;10.016;2023-07-31T05:21:15;2.20;;;1.70;;
54372;SDS011;69157;53.094;10.016;2023-07-31T05:23:42;3.30;;;1.77;;
54372;SDS011;69157;53.094;10.016;2023-07-31T05:26:08;3.72;;;2.15;;
54372;SDS011;69157;53.094;10.016;2023-07-31T05:28:35;2.95;;;1.88;;
54372;SDS011;69157;53.094;10.016;2023-07-31T05:31:01;2.08;;;1.50;;
54372;SDS011;69157;53.094;10.016;2023-07-31T05:33:27;2.70;;;1.40;;
54372;SDS011;69157;53.094;10.016;2023-07-31T05:35:53;4.28;;;1.77;;
54372;SDS011;69157;53.094;10.016;2023-07-31T05:38:19;2.00;;;1.50;;
54372;SDS011;69157;53.094;10.016;2023-07-31T05:40:46;1.40;;;1.08;;
54372;SDS011;69157;53.094;10.016;2023-07-31T05:43:12;1.67;;;1.33;;
54372;SDS011;69157;53.094;10.016;2023-07-31T05:45:38;1.50;;;1.10;;
54372;SDS011;69157;53.094;10.016;2023-07-31T05:48:05;1.52;;;1.10;;
54372;SDS011;69157;53.094;10.016;2023-07-31T05:50:31;2.25;;;1.45;;
54372;SDS011;69157;53.094;10.016;2023-07-31T05:52:57;3.22;;;1.40;;
54372;SDS011;69157;53.094;10.016;2023-07-31T05:55:24;3.17;;;1.55;;
54372;SDS011;69157;53.094;10.016;2023-07-31T05:57:52;3.05;;;1.48;;
54372;SDS011;69157;53.094;10.016;2023-07-31T06:00:18;1.63;;;1.27;;
54372;SDS011;69157;53.094;10.016;2023-07-31T06:02:44;1.95;;;1.20;;
54372;SDS011;69157;53.094;10.016;2023-07-31T06:05:10;1.10;;;0.90;;
54372;SDS011;69157;53.094;10.016;2023-07-31T06:07:36;1.70;;;0.95;;
54372;SDS011;69157;53.094;10.016;2023-07-31T06:10:02;1.35;;;1.00;;
54372;SDS011;69157;53.094;10.016;2023-07-31T06:12:31;2.50;;;1.10;;
54372;SDS011;69157;53.094;10.016;2023-07-31T06:14:57;4.82;;;1.00;;
54372;SDS011;69157;53.094;10.016;2023-07-31T06:17:23;1.83;;;1.02;;
54372;SDS011;69157;53.094;10.016;2023-07-31T06:19:49;1.13;;;0.82;;
54372;SDS011;69157;53.094;10.016;2023-07-31T06:22:15;1.50;;;0.80;;
54372;SDS011;69157;53.094;10.016;2023-07-31T06:24:41;1.15;;;0.85;;
54372;SDS011;69157;53.094;10.016;2023-07-31T06:27:07;1.10;;;0.90;;
54372;SDS011;69157;53.094;10.016;2023-07-31T06:29:34;1.15;;;0.70;;
54372;SDS011;69157;53.094;10.016;2023-07-31T06:32:00;0.80;;;0.70;;
54372;SDS011;69157;53.094;10.016;2023-07-31T06:34:26;1.10;;;0.85;;
54372;SDS011;69157;53.094;10.016;2023-07-31T06:36:52;1.67;;;0.90;;
54372;SDS011;69157;53.094;10.016;2023-07-31T06:39:18;1.52;;;0.80;;
54372;SDS011;69157;53.094;10.016;2023-07-31T06:41:44;1.25;;;0.90;;
54372;SDS011;69157;53.094;10.016;2023-07-31T06:44:10;0.90;;;0.70;;
54372;SDS011;69157;53.094;10.016;2023-07-31T06:46:36;1.42;;;0.88;;
54372;SDS011;69157;53.094;10.016;2023-07-31T06:49:02;1.63;;;0.90;;
54372;SDS011;69157;53.094;10.016;2023-07-31T06:51:29;1.35;;;0.88;;
54372;SDS011;69157;53.094;10.016;2023-07-31T06:53:56;1.08;;;0.63;;
54372;SDS011;69157;53.094;10.016;2023-07-31T06:56:22;0.50;;;0.43;;
54372;SDS011;69157;53.094;10.016;2023-07-31T06:58:48;1.05;;;0.65;;
54372;SDS011;69157;53.094;10.016;2023-07-31T07:01:15;1.17;;;0.70;;
54372;SDS011;69157;53.094;10.016;2023-07-31T07:03:41;1.17;;;0.60;;
54372;SDS011;69157;53.094;10.016;2023-07-31T07:06:07;1.25;;;0.68;;
54372;SDS011;69157;53.094;10.016;2023-07-31T07:08:33;1.17;;;0.60;;
54372;SDS011;69157;53.094;10.016;2023-07-31T07:10:59;0.60;;;0.50;;
54372;SDS011;69157;53.094;10.016;2023-07-31T07:13:25;0.80;;;0.60;;
54372;SDS011;69157;53.094;10.016;2023-07-31T07:15:51;0.50;;;0.50;;
54372;SDS011;69157;53.094;10.016;2023-07-31T07:18:17;0.63;;;0.43;;
54372;SDS011;69157;53.094;10.016;2023-07-31T07:20:47;1.35;;;0.60;;
54372;SDS011;69157;53.094;10.016;2023-07-31T07:23:13;0.50;;;0.50;;
54372;SDS011;69157;53.094;10.016;2023-07-31T07:25:39;0.65;;;0.50;;
54372;SDS011;69157;53.094;10.016;2023-07-31T07:28:05;1.25;;;0.40;;
54372;SDS011;69157;53.094;10.016;2023-07-31T07:30:31;0.50;;;0.47;;
54372;SDS011;69157;53.094;10.016;2023-07-31T07:32:57;0.70;;;0.60;;
54372;SDS011;69157;53.094;10.016;2023-07-31T07:35:23;1.00;;;0.40;;
54372;SDS011;69157;53.094;10.016;2023-07-31T07:37:49;0.35;;;0.35;;
54372;SDS011;69157;53.094;10.016;2023-07-31T07:40:15;0.95;;;0.45;;
54372;SDS011;69157;53.094;10.016;2023-07-31T07:42:41;0.38;;;0.32;;
54372;SDS011;69157;53.094;10.016;2023-07-31T07:45:07;0.30;;;0.30;;
54372;SDS011;69157;53.094;10.016;2023-07-31T07:47:34;0.20;;;0.20;;
54372;SDS011;69157;53.094;10.016;2023-07-31T07:50:00;0.20;;;0.20;;
54372;SDS011;69157;53.094;10.016;2023-07-31T07:52:26;0.40;;;0.40;;
54372;SDS011;69157;53.094;10.016;2023-07-31T07:54:52;0.43;;;0.40;;
54372;SDS011;69157;53.094;10.016;2023-07-31T07:57:18;0.17;;;0.17;;
54372;SDS011;69157;53.094;10.016;2023-07-31T07:59:44;0.40;;;0.30;;
54372;SDS011;69157;53.094;10.016;2023-07-31T08:02:10;0.28;;;0.25;;
54372;SDS011;69157;53.094;10.016;2023-07-31T08:04:36;0.30;;;0.30;;
54372;SDS011;69157;53.094;10.016;2023-07-31T08:07:02;0.30;;;0.30;;
54372;SDS011;69157;53.094;10.016;2023-07-31T08:09:28;0.20;;;0.20;;
54372;SDS011;69157;53.094;10.016;2023-07-31T08:11:54;0.10;;;0.10;;
54372;SDS011;69157;53.094;10.016;2023-07-31T08:14:22;0.20;;;0.20;;
54372;SDS011;69157;53.094;10.016;2023-07-31T08:16:48;0.57;;;0.40;;
54372;SDS011;69157;53.094;10.016;2023-07-31T08:19:14;0.28;;;0.20;;
54372;SDS011;69157;53.094;10.016;2023-07-31T08:21:41;0.32;;;0.32;;
54372;SDS011;69157;53.094;10.016;2023-07-31T08:24:08;0.30;;;0.30;;
54372;SDS011;69157;53.094;10.016;2023-07-31T08:26:34;0.32;;;0.32;;
54372;SDS011;69157;53.094;10.016;2023-07-31T08:29:00;0.20;;;0.20;;
54372;SDS011;69157;53.094;10.016;2023-07-31T08:31:26;0.65;;;0.38;;
54372;SDS011;69157;53.094;10.016;2023-07-31T08:33:54;0.82;;;0.40;;
54372;SDS011;69157;53.094;10.016;2023-07-31T08:36:20;0.40;;;0.40;;
54372;SDS011;69157;53.094;10.016;2023-07-31T08:38:46;0.60;;;0.38;;
54372;SDS011;69157;53.094;10.016;2023-07-31T08:41:12;0.60;;;0.50;;
54372;SDS011;69157;53.094;10.016;2023-07-31T08:43:38;1.25;;;0.60;;
54372;SDS011;69157;53.094;10.016;2023-07-31T08:46:05;1.02;;;0.60;;
54372;SDS011;69157;53.094;10.016;2023-07-31T08:48:31;0.60;;;0.60;;
54372;SDS011;69157;53.094;10.016;2023-07-31T08:50:58;0.65;;;0.65;;
54372;SDS011;69157;53.094;10.016;2023-07-31T08:53:24;1.83;;;1.00;;
54372;SDS011;69157;53.094;10.016;2023-07-31T08:55:51;2.65;;;1.10;;
54372;SDS011;69157;53.094;10.016;2023-07-31T08:58:19;3.17;;;1.30;;
54372;SDS011;69157;53.094;10.016;2023-07-31T09:00:46;4.10;;;1.50;;
54372;SDS011;69157;53.094;10.016;2023-07-31T09:03:16;6.68;;;1.70;;
54372;SDS011;69157;53.094;10.016;2023-07-31T09:08:09;4.75;;;1.63;;
54372;SDS011;69157;53.094;10.016;2023-07-31T09:10:40;4.65;;;2.08;;
54372;SDS011;69157;53.094;10.016;2023-07-31T09:13:06;5.05;;;2.45;;
54372;SDS011;69157;53.094;10.016;2023-07-31T09:15:32;5.80;;;2.85;;
54372;SDS011;69157;53.094;10.016;2023-07-31T09:18:00;7.72;;;2.63;;
54372;SDS011;69157;53.094;10.016;2023-07-31T09:20:26;5.78;;;2.05;;
54372;SDS011;69157;53.094;10.016;2023-07-31T09:22:53;7.07;;;2.67;;
54372;SDS011;69157;53.094;10.016;2023-07-31T09:25:22;5.10;;;2.47;;
54372;SDS011;69157;53.094;10.016;2023-07-31T09:27:49;10.20;;;3.03;;
54372;SDS011;69157;53.094;10.016;2023-07-31T09:30:16;6.68;;;3.15;;
54372;SDS011;69157;53.094;10.016;2023-07-31T09:32:47;7.95;;;2.95;;
54372;SDS011;69157;53.094;10.016;2023-07-31T09:37:39;8.25;;;3.33;;
54372;SDS011;69157;53.094;10.016;2023-07-31T09:40:05;6.63;;;2.55;;
54372;SDS011;69157;53.094;10.016;2023-07-31T09:42:31;6.25;;;3.13;;
54372;SDS011;69157;53.094;10.016;2023-07-31T09:45:08;9.73;;;3.10;;
54372;SDS011;69157;53.094;10.016;2023-07-31T09:47:35;6.70;;;2.55;;
54372;SDS011;69157;53.094;10.016;2023-07-31T09:50:01;6.07;;;2.38;;
54372;SDS011;69157;53.094;10.016;2023-07-31T09:52:27;6.65;;;3.30;;
54372;SDS011;69157;53.094;10.016;2023-07-31T09:54:53;6.32;;;3.03;;
54372;SDS011;69157;53.094;10.016;2023-07-31T09:57:19;9.98;;;2.90;;
54372;SDS011;69157;53.094;10.016;2023-07-31T09:59:47;5.10;;;2.40;;
54372;SDS011;69157;53.094;10.016;2023-07-31T10:02:20;4.97;;;2.53;;
54372;SDS011;69157;53.094;10.016;2023-07-31T10:04:47;5.50;;;2.33;;
54372;SDS011;69157;53.094;10.016;2023-07-31T10:07:16;6.80;;;3.00;;
54372;SDS011;69157;53.094;10.016;2023-07-31T10:09:43;6.90;;;4.13;;
54372;SDS011;69157;53.094;10.016;2023-07-31T10:12:11;5.18;;;2.42;;
54372;SDS011;69157;53.094;10.016;2023-07-31T10:14:38;7.40;;;2.90;;
54372;SDS011;69157;53.094;10.016;2023-07-31T10:17:04;5.22;;;2.83;;
54372;SDS011;69157;53.094;10.016;2023-07-31T10:19:31;6.07;;;3.28;;
54372;SDS011;69157;53.094;10.016;2023-07-31T10:21:57;6.68;;;2.45;;
54372;SDS011;69157;53.094;10.016;2023-07-31T10:24:24;6.88;;;2.83;;
54372;SDS011;69157;53.094;10.016;2023-07-31T10:26:50;5.22;;;2.42;;
54372;SDS011;69157;53.094;10.016;2023-07-31T10:29:17;8.77;;;2.83;;
54372;SDS011;69157;53.094;10.016;2023-07-31T10:31:45;5.13;;;2.17;;
54372;SDS011;69157;53.094;10.016;2023-07-31T10:34:11;5.45;;;2.40;;
54372;SDS011;69157;53.094;10.016;2023-07-31T10:36:37;4.82;;;2.40;;
54372;SDS011;69157;53.094;10.016;2023-07-31T10:39:04;3.33;;;2.13;;
54372;SDS011;69157;53.094;10.016;2023-07-31T10:41:33;3.90;;;2.33;;
54372;SDS011;69157;53.094;10.016;2023-07-31T10:44:01;6.38;;;2.22;;
54372;SDS011;69157;53.094;10.016;2023-07-31T10:46:28;3.95;;;2.42;;
54372;SDS011;69157;53.094;10.016;2023-07-31T10:48:58;5.47;;;2.17;;
54372;SDS011;69157;53.094;10.016;2023-07-31T10:51:34;4.38;;;2.25;;
54372;SDS011;69157;53.094;10.016;2023-07-31T10:54:12;5.88;;;2.25;;
54372;SDS011;69157;53.094;10.016;2023-07-31T10:56:45;4.07;;;2.00;;
54372;SDS011;69157;53.094;10.016;2023-07-31T10:59:12;4.35;;;2.28;;
54372;SDS011;69157;53.094;10.016;2023-07-31T11:01:52;5.13;;;2.40;;
54372;SDS011;69157;53.094;10.016;2023-07-31T11:04:22;7.35;;;2.00;;
54372;SDS011;69157;53.094;10.016;2023-07-31T11:06:56;4.60;;;1.92;;
54372;SDS011;69157;53.094;10.016;2023-07-31T11:09:22;3.88;;;2.20;;
54372;SDS011;69157;53.094;10.016;2023-07-31T11:11:49;3.78;;;1.73;;
54372;SDS011;69157;53.094;10.016;2023-07-31T11:14:16;2.88;;;1.45;;
54372;SDS011;69157;53.094;10.016;2023-07-31T11:16:42;2.70;;;1.67;;
54372;SDS011;69157;53.094;10.016;2023-07-31T11:19:08;2.65;;;1.33;;
54372;SDS011;69157;53.094;10.016;2023-07-31T11:21:34;2.58;;;1.60;;
54372;SDS011;69157;53.094;10.016;2023-07-31T11:24:01;3.00;;;1.80;;
54372;SDS011;69157;53.094;10.016;2023-07-31T11:26:27;2.40;;;1.42;;
54372;SDS011;69157;53.094;10.016;2023-07-31T11:28:53;2.15;;;1.23;;
54372;SDS011;69157;53.094;10.016;2023-07-31T11:31:19;2.35;;;1.50;;
54372;SDS011;69157;53.094;10.016;2023-07-31T11:33:45;2.30;;;1.38;;
54372;SDS011;69157;53.094;10.016;2023-07-31T11:36:18;1.88;;;1.10;;
54372;SDS011;69157;53.094;10.016;2023-07-31T11:38:44;1.17;;;1.00;;
54372;SDS011;69157;53.094;10.016;2023-07-31T11:41:13;3.38;;;1.50;;
54372;SDS011;69157;53.094;10.016;2023-07-31T11:43:39;3.17;;;1.33;;
54372;SDS011;69157;53.094;10.016;2023-07-31T11:46:05;2.80;;;1.40;;
54372;SDS011;69157;53.094;10.016;2023-07-31T11:48:34;3.00;;;1.42;;
54372;SDS011;69157;53.094;10.016;2023-07-31T11:51:04;1.58;;;1.17;;
54372;SDS011;69157;53.094;10.016;2023-07-31T11:56:06;1.98;;;1.48;;
54372;SDS011;69157;53.094;10.016;2023-07-31T11:58:34;2.58;;;1.40;;
54372;SDS011;69157;53.094;10.016;2023-07-31T12:01:00;2.53;;;1.50;;
54372;SDS011;69157;53.094;10.016;2023-07-31T12:03:26;1.35;;;1.25;;
54372;SDS011;69157;53.094;10.016;2023-07-31T12:05:53;1.33;;;1.20;;
54372;SDS011;69157;53.094;10.016;2023-07-31T12:08:22;1.70;;;1.17;;
54372;SDS011;69157;53.094;10.016;2023-07-31T12:10:53;1.70;;;1.30;;
54372;SDS011;69157;53.094;10.016;2023-07-31T12:13:23;1.90;;;1.20;;
54372;SDS011;69157;53.094;10.016;2023-07-31T12:15:53;1.38;;;1.20;;
54372;SDS011;69157;53.094;10.016;2023-07-31T12:20:47;1.92;;;1.10;;
54372;SDS011;69157;53.094;10.016;2023-07-31T12:23:17;2.03;;;1.38;;
54372;SDS011;69157;53.094;10.016;2023-07-31T12:25:44;1.85;;;1.30;;
54372;SDS011;69157;53.094;10.016;2023-07-31T12:28:10;2.95;;;1.30;;
54372;SDS011;69157;53.094;10.016;2023-07-31T12:30:37;1.63;;;1.27;;
54372;SDS011;69157;53.094;10.016;2023-07-31T12:33:04;2.70;;;1.20;;
54372;SDS011;69157;53.094;10.016;2023-07-31T12:35:37;1.30;;;1.10;;
54372;SDS011;69157;53.094;10.016;2023-07-31T12:38:03;2.10;;;1.27;;
54372;SDS011;69157;53.094;10.016;2023-07-31T12:40:29;1.40;;;1.13;;
54372;SDS011;69157;53.094;10.016;2023-07-31T12:42:56;1.42;;;1.08;;
54372;SDS011;69157;53.094;10.016;2023-07-31T12:45:22;1.80;;;1.15;;
54372;SDS011;69157;53.094;10.016;2023-07-31T12:47:48;2.20;;;0.90;;
54372;SDS011;69157;53.094;10.016;2023-07-31T12:50:15;1.85;;;0.90;;
54372;SDS011;69157;53.094;10.016;2023-07-31T12:52:41;2.60;;;1.20;;
54372;SDS011;69157;53.094;10.016;2023-07-31T12:55:07;1.20;;;1.00;;
54372;SDS011;69157;53.094;10.016;2023-07-31T12:57:33;1.48;;;1.00;;
54372;SDS011;69157;53.094;10.016;2023-07-31T13:00:00;2.08;;;1.10;;
54372;SDS011;69157;53.094;10.016;2023-07-31T13:02:26;1.75;;;1.02;;
54372;SDS011;69157;53.094;10.016;2023-07-31T13:04:52;1.25;;;0.98;;
54372;SDS011;69157;53.094;10.016;2023-07-31T13:07:19;1.38;;;1.00;;
54372;SDS011;69157;53.094;10.016;2023-07-31T13:09:45;1.20;;;0.90;;
54372;SDS011;69157;53.094;10.016;2023-07-31T13:12:11;1.55;;;1.02;;
54372;SDS011;69157;53.094;10.016;2023-07-31T13:14:37;0.90;;;0.65;;
54372;SDS011;69157;53.094;10.016;2023-07-31T13:17:03;1.00;;;0.90;;
54372;SDS011;69157;53.094;10.016;2023-07-31T13:19:29;1.58;;;0.80;;
54372;SDS011;69157;53.094;10.016;2023-07-31T13:21:55;0.77;;;0.68;;
54372;SDS011;69157;53.094;10.016;2023-07-31T13:24:21;1.48;;;0.75;;
54372;SDS011;69157;53.094;10.016;2023-07-31T13:26:47;0.93;;;0.70;;
54372;SDS011;69157;53.094;10.016;2023-07-31T13:29:13;0.95;;;0.82;;
54372;SDS011;69157;53.094;10.016;2023-07-31T13:31:39;0.73;;;0.68;;
54372;SDS011;69157;53.094;10.016;2023-07-31T13:34:05;2.63;;;1.00;;
54372;SDS011;69157;53.094;10.016;2023-07-31T13:36:31;1.35;;;1.00;;
54372;SDS011;69157;53.094;10.016;2023-07-31T13:38:59;2.80;;;1.15;;
54372;SDS011;69157;53.094;10.016;2023-07-31T13:41:25;1.13;;;0.98;;
54372;SDS011;69157;53.094;10.016;2023-07-31T13:43:51;1.30;;;1.00;;
54372;SDS011;69157;53.094;10.016;2023-07-31T13:46:17;1.02;;;0.70;;
54372;SDS011;69157;53.094;10.016;2023-07-31T13:48:43;2.38;;;1.10;;
54372;SDS011;69157;53.094;10.016;2023-07-31T13:51:09;1.40;;;0.93;;
54372;SDS011;69157;53.094;10.016;2023-07-31T13:53:35;1.95;;;1.45;;
54372;SDS011;69157;53.094;10.016;2023-07-31T13:56:01;2.30;;;1.60;;
54372;SDS011;69157;53.094;10.016;2023-07-31T13:58:27;1.95;;;1.30;;
54372;SDS011;69157;53.094;10.016;2023-07-31T14:00:53;2.17;;;1.42;;
54372;SDS011;69157;53.094;10.016;2023-07-31T14:03:19;2.08;;;1.40;;
54372;SDS011;69157;53.094;10.016;2023-07-31T14:05:45;2.22;;;1.40;;
54372;SDS011;69157;53.094;10.016;2023-07-31T14:08:11;2.67;;;2.00;;
54372;SDS011;69157;53.094;10.016;2023-07-31T14:10:37;2.38;;;1.58;;
54372;SDS011;69157;53.094;10.016;2023-07-31T14:13:03;1.88;;;1.48;;
54372;SDS011;69157;53.094;10.016;2023-07-31T14:15:29;1.80;;;1.30;;
54372;SDS011;69157;53.094;10.016;2023-07-31T14:17:56;2.67;;;1.63;;
54372;SDS011;69157;53.094;10.016;2023-07-31T14:20:22;2.10;;;1.30;;
54372;SDS011;69157;53.094;10.016;2023-07-31T14:22:49;2.45;;;1.40;;
54372;SDS011;69157;53.094;10.016;2023-07-31T14:25:14;1.88;;;1.33;;
54372;SDS011;69157;53.094;10.016;2023-07-31T14:27:41;2.50;;;1.40;;
54372;SDS011;69157;53.094;10.016;2023-07-31T14:30:07;2.50;;;1.45;;
54372;SDS011;69157;53.094;10.016;2023-07-31T14:32:33;1.60;;;1.42;;
54372;SDS011;69157;53.094;10.016;2023-07-31T14:34:59;2.40;;;1.80;;
54372;SDS011;69157;53.094;10.016;2023-07-31T14:37:25;1.88;;;1.55;;
54372;SDS011;69157;53.094;10.016;2023-07-31T14:39:54;2.00;;;1.65;;
54372;SDS011;69157;53.094;10.016;2023-07-31T14:42:21;5.10;;;1.80;;